Time;durP1;ratioP1;P1;durP2;ratioP2;P2;SDS_P1;SDS_P2;PMS_P1;PMS_P2;Temp;Humidity;BMP_temperature;BMP_pressure;BME280_temperature;BME280_humidity;BME280_pressure;Samples;Min_cycle;Max_cycle;Signal;HPM_P1;HPM_P2
2023/11/22 00:00:31;;;;;;;17.27;15.48;;;3.80;99.90;;;;;;4994620;28;20164;-71
2023/11/22 00:02:57;;;;;;;14.95;13.45;;;3.70;99.90;;;;;;5008249;28;20037;-71
2023/11/22 00:05:23;;;;;;;16.17;14.02;;;3.70;99.90;;;;;;5002132;28;20099;-71
2023/11/22 00:07:48;;;;;;;19.67;16.55;;;3.70;99.90;;;;;;5001007;28;20049;-71
2023/11/22 00:10:14;;;;;;;15.88;14.18;;;3.70;99.90;;;;;;5002463;28;20054;-71
2023/11/22 00:12:40;;;;;;;15.95;14.23;;;3.60;99.90;;;;;;5004874;28;20048;-70
2023/11/22 00:15:07;;;;;;;17.70;14.85;;;3.60;99.90;;;;;;5005504;28;20415;-71
2023/11/22 00:17:36;;;;;;;15.73;14.02;;;3.60;99.90;;;;;;4998593;28;20046;-70
2023/11/22 00:20:05;;;;;;;15.65;13.40;;;3.60;99.90;;;;;;4989551;28;20042;-71
2023/11/22 00:22:34;;;;;;;16.70;13.23;;;3.50;99.90;;;;;;4987556;28;20057;-71
2023/11/22 00:25:03;;;;;;;16.95;13.05;;;3.50;99.90;;;;;;4993076;28;20072;-70
2023/11/22 00:27:31;;;;;;;15.52;13.93;;;3.50;99.90;;;;;;4999063;28;20045;-71
2023/11/22 00:29:57;;;;;;;15.60;13.23;;;3.40;99.90;;;;;;5003715;28;20496;-71
2023/11/22 00:32:23;;;;;;;17.40;13.45;;;3.40;99.90;;;;;;5008218;28;20103;-71
2023/11/22 00:34:49;;;;;;;14.20;12.07;;;3.40;99.90;;;;;;4996212;28;20050;-70
2023/11/22 00:37:15;;;;;;;13.68;12.27;;;3.40;99.90;;;;;;5006893;28;20475;-71
2023/11/22 00:39:41;;;;;;;14.13;11.93;;;3.40;99.90;;;;;;4986820;28;20087;-70
2023/11/22 00:42:08;;;;;;;14.05;12.50;;;3.40;99.90;;;;;;5003540;28;20042;-71
2023/11/22 00:44:34;;;;;;;14.32;12.13;;;3.30;99.90;;;;;;5001197;28;20488;-71
2023/11/22 00:47:00;;;;;;;14.60;12.57;;;3.40;99.90;;;;;;5001469;28;20240;-70
2023/11/22 00:49:25;;;;;;;13.55;12.00;;;3.30;99.90;;;;;;4986860;28;20053;-71
2023/11/22 00:51:54;;;;;;;15.48;12.32;;;3.30;99.90;;;;;;4993171;28;20049;-70
2023/11/22 00:54:20;;;;;;;13.07;11.77;;;3.30;99.90;;;;;;4986621;28;20432;-70
2023/11/22 00:56:46;;;;;;;14.13;12.15;;;3.30;99.90;;;;;;5002514;28;20042;-70
2023/11/22 00:59:12;;;;;;;20.75;14.27;;;3.30;99.90;;;;;;5004663;28;20049;-71
2023/11/22 01:01:38;;;;;;;13.93;12.48;;;3.20;99.90;;;;;;5010966;28;20497;-71
2023/11/22 01:04:06;;;;;;;15.73;13.40;;;3.10;99.90;;;;;;5001907;28;20042;-70
2023/11/22 01:06:32;;;;;;;12.73;11.43;;;3.10;99.90;;;;;;5018186;28;20111;-70
2023/11/22 01:08:57;;;;;;;13.45;12.05;;;3.10;99.90;;;;;;5005155;28;20394;-70
2023/11/22 01:11:23;;;;;;;17.52;14.60;;;3.00;99.90;;;;;;5003967;28;20053;-70
2023/11/22 01:13:49;;;;;;;17.35;14.75;;;3.00;99.90;;;;;;4991284;28;20042;-70
2023/11/22 01:16:15;;;;;;;19.27;14.73;;;3.00;99.90;;;;;;5012925;28;20504;-70
2023/11/22 01:18:41;;;;;;;22.65;16.13;;;2.90;99.90;;;;;;5004977;28;20124;-73
2023/11/22 01:21:08;;;;;;;20.98;17.15;;;2.90;99.90;;;;;;5000915;28;20049;-72
2023/11/22 01:23:34;;;;;;;26.05;18.15;;;2.80;99.90;;;;;;4993914;28;20152;-72
2023/11/22 01:26:00;;;;;;;17.88;15.57;;;2.70;99.90;;;;;;5012313;28;20065;-73
2023/11/22 01:28:29;;;;;;;19.92;16.10;;;2.70;99.90;;;;;;4994547;28;20045;-70
2023/11/22 01:30:55;;;;;;;23.40;17.95;;;2.80;99.90;;;;;;4990277;28;20068;-69
2023/11/22 01:33:24;;;;;;;24.85;19.25;;;2.80;99.90;;;;;;5009988;28;20425;-73
2023/11/22 01:35:50;;;;;;;16.58;14.32;;;2.80;99.90;;;;;;4985025;28;20041;-71
2023/11/22 01:38:16;;;;;;;14.85;12.57;;;2.70;99.90;;;;;;5005032;28;20515;-71
2023/11/22 01:40:48;;;;;;;15.32;13.20;;;2.60;99.90;;;;;;5008225;28;20684;-71
2023/11/22 01:43:15;;;;;;;17.30;14.00;;;2.60;99.90;;;;;;4988518;28;20107;-71
2023/11/22 01:45:41;;;;;;;18.13;14.40;;;2.50;99.90;;;;;;5003856;28;20042;-71
2023/11/22 01:48:07;;;;;;;22.77;16.58;;;2.50;99.90;;;;;;5001944;28;20443;-71
2023/11/22 01:50:33;;;;;;;27.42;18.63;;;2.50;99.90;;;;;;4993363;28;20041;-71
2023/11/22 01:52:59;;;;;;;17.75;14.60;;;2.40;99.90;;;;;;4988196;28;20045;-71
2023/11/22 01:55:26;;;;;;;16.52;13.90;;;2.40;99.90;;;;;;5005558;28;20084;-71
2023/11/22 01:57:54;;;;;;;24.60;17.38;;;2.30;99.90;;;;;;5003459;28;20451;-71
2023/11/22 02:00:23;;;;;;;20.10;15.80;;;2.30;99.90;;;;;;4987528;28;20684;-71
2023/11/22 02:02:49;;;;;;;17.25;14.05;;;2.30;99.90;;;;;;5003881;28;20046;-71
2023/11/22 02:05:14;;;;;;;29.10;19.48;;;2.30;99.90;;;;;;5005511;28;20039;-71
2023/11/22 02:07:41;;;;;;;20.13;15.00;;;2.20;99.90;;;;;;4987082;28;20064;-71
2023/11/22 02:10:08;;;;;;;16.35;13.55;;;2.20;99.90;;;;;;4984946;28;20493;-71
2023/11/22 02:12:33;;;;;;;16.38;13.60;;;2.10;99.90;;;;;;5012747;28;20044;-71
2023/11/22 02:14:59;;;;;;;17.67;14.40;;;2.10;99.90;;;;;;5008000;28;20403;-71
2023/11/22 02:17:25;;;;;;;16.83;14.27;;;2.20;99.90;;;;;;5005559;28;20173;-70
2023/11/22 02:19:51;;;;;;;14.40;12.40;;;2.00;99.90;;;;;;4982312;28;20037;-71
2023/11/22 02:22:17;;;;;;;18.48;13.52;;;2.00;99.90;;;;;;5005764;28;20116;-71
2023/11/22 02:24:43;;;;;;;17.77;13.88;;;1.90;99.90;;;;;;5004578;28;20140;-71
2023/11/22 02:27:08;;;;;;;15.88;13.30;;;1.90;99.90;;;;;;5004637;28;20121;-71
2023/11/22 02:29:34;;;;;;;15.35;13.07;;;1.80;99.90;;;;;;5008775;28;20567;-71
2023/11/22 02:32:00;;;;;;;15.23;12.98;;;1.80;99.90;;;;;;4989168;28;20064;-71
2023/11/22 02:34:26;;;;;;;18.10;13.77;;;1.80;99.90;;;;;;5000187;28;20050;-70
2023/11/22 02:36:54;;;;;;;16.45;13.40;;;1.80;99.90;;;;;;5005540;28;20042;-70
2023/11/22 02:39:20;;;;;;;16.08;13.50;;;1.80;99.90;;;;;;4989480;28;20394;-70
2023/11/22 02:41:46;;;;;;;17.77;13.55;;;1.80;99.90;;;;;;4983248;28;20565;-70
2023/11/22 02:44:17;;;;;;;16.73;14.75;;;1.80;99.90;;;;;;5005682;28;20045;-70
2023/11/22 02:46:43;;;;;;;18.23;14.07;;;1.80;99.90;;;;;;5006161;28;21190;-70
2023/11/22 02:49:09;;;;;;;18.50;14.80;;;1.90;99.90;;;;;;4990824;28;20049;-70
2023/11/22 02:51:35;;;;;;;16.98;14.20;;;1.90;99.90;;;;;;5000500;28;20077;-70
2023/11/22 02:54:01;;;;;;;17.67;13.90;;;1.70;99.90;;;;;;4988139;28;20200;-70
2023/11/22 02:56:27;;;;;;;15.07;13.48;;;1.80;99.90;;;;;;4988009;28;20068;-70
2023/11/22 02:58:52;;;;;;;15.63;13.73;;;1.80;99.90;;;;;;4983968;28;20128;-70
2023/11/22 03:01:18;;;;;;;15.48;13.20;;;1.80;99.90;;;;;;5007470;28;20043;-70
2023/11/22 03:03:44;;;;;;;17.10;13.55;;;1.80;99.90;;;;;;5003379;28;20081;-70
2023/11/22 03:06:10;;;;;;;15.55;13.93;;;1.70;99.90;;;;;;4994834;28;20087;-70
2023/11/22 03:08:36;;;;;;;16.40;13.73;;;1.80;99.90;;;;;;5010164;28;20104;-71
2023/11/22 03:11:02;;;;;;;18.35;15.05;;;1.70;99.90;;;;;;5004770;28;20080;-70
2023/11/22 03:13:28;;;;;;;18.25;14.70;;;1.70;99.90;;;;;;5011191;28;20140;-71
2023/11/22 03:15:53;;;;;;;16.85;14.95;;;1.80;99.90;;;;;;5009436;28;20120;-70
2023/11/22 03:18:21;;;;;;;17.23;13.80;;;1.70;99.90;;;;;;4986432;28;20510;-71
2023/11/22 03:20:47;;;;;;;16.60;14.00;;;1.70;99.90;;;;;;4993139;28;20125;-71
2023/11/22 03:23:16;;;;;;;14.98;12.85;;;1.60;99.90;;;;;;4995351;28;20572;-70
2023/11/22 03:25:42;;;;;;;16.42;13.73;;;1.70;99.90;;;;;;4992597;28;20393;-70
2023/11/22 03:28:08;;;;;;;18.80;15.45;;;1.60;99.90;;;;;;5010625;28;20076;-70
2023/11/22 03:30:34;;;;;;;18.75;15.82;;;1.50;99.90;;;;;;5005608;28;20041;-70
2023/11/22 03:32:59;;;;;;;18.15;15.05;;;1.60;99.90;;;;;;5006815;28;20064;-70
2023/11/22 03:35:25;;;;;;;17.15;15.05;;;1.60;99.90;;;;;;5009604;28;20052;-71
2023/11/22 03:37:52;;;;;;;19.15;16.10;;;1.60;99.90;;;;;;5005271;28;20115;-72
2023/11/22 03:40:17;;;;;;;16.00;14.27;;;1.50;99.90;;;;;;4991241;28;20029;-72
2023/11/22 03:42:43;;;;;;;17.13;14.32;;;1.40;99.90;;;;;;4993282;28;20057;-71
2023/11/22 03:45:09;;;;;;;18.58;15.25;;;1.40;99.90;;;;;;4994291;28;20069;-71
2023/11/22 03:47:38;;;;;;;20.75;15.95;;;1.40;99.90;;;;;;5005102;28;20125;-72
2023/11/22 03:50:05;;;;;;;17.25;15.15;;;1.50;99.90;;;;;;4993761;28;20176;-71
2023/11/22 03:52:31;;;;;;;19.80;15.60;;;1.40;99.90;;;;;;4991597;28;20252;-71
2023/11/22 03:54:58;;;;;;;20.90;14.93;;;1.40;99.90;;;;;;5004122;28;20111;-71
2023/11/22 03:57:23;;;;;;;20.52;15.90;;;1.50;99.90;;;;;;5002344;28;20056;-71
2023/11/22 03:59:49;;;;;;;21.52;16.50;;;1.60;99.90;;;;;;4993917;28;20049;-71
2023/11/22 04:02:15;;;;;;;16.60;14.20;;;1.50;99.90;;;;;;4995141;28;20072;-71
2023/11/22 04:04:41;;;;;;;20.13;16.08;;;1.40;99.90;;;;;;5005588;28;20461;-71
2023/11/22 04:07:08;;;;;;;19.17;16.15;;;1.50;99.90;;;;;;5006065;28;20045;-71
2023/11/22 04:09:33;;;;;;;20.50;16.07;;;1.40;99.90;;;;;;5014060;28;20049;-72
2023/11/22 04:11:59;;;;;;;17.98;15.63;;;1.40;99.90;;;;;;5006951;28;20038;-71
2023/11/22 04:14:27;;;;;;;20.33;16.27;;;1.30;99.90;;;;;;4995150;28;20088;-71
2023/11/22 04:16:53;;;;;;;20.15;15.77;;;1.30;99.90;;;;;;4991513;28;20048;-71
2023/11/22 04:19:18;;;;;;;16.90;14.68;;;1.30;99.90;;;;;;5008260;28;20501;-70
2023/11/22 04:21:44;;;;;;;18.02;14.82;;;1.20;99.90;;;;;;5003121;28;20080;-71
2023/11/22 04:24:12;;;;;;;18.90;16.17;;;1.20;99.90;;;;;;5003667;28;20421;-71
2023/11/22 04:26:38;;;;;;;20.00;17.15;;;1.20;99.90;;;;;;4994683;28;20041;-71
2023/11/22 04:29:04;;;;;;;19.83;15.88;;;1.20;99.90;;;;;;5006768;28;20056;-71
2023/11/22 04:31:30;;;;;;;23.45;16.73;;;1.20;99.90;;;;;;4989429;28;20045;-71
2023/11/22 04:34:00;;;;;;;15.98;13.13;;;1.20;99.90;;;;;;5011343;28;20568;-71
2023/11/22 04:36:25;;;;;;;15.45;13.32;;;1.20;99.90;;;;;;5009721;28;20504;-71
2023/11/22 04:38:51;;;;;;;16.17;13.13;;;1.20;99.90;;;;;;5005512;28;20059;-71
2023/11/22 04:41:18;;;;;;;16.00;14.03;;;1.20;99.90;;;;;;4991429;28;20129;-71
2023/11/22 04:43:44;;;;;;;23.75;15.75;;;1.20;99.90;;;;;;5006012;28;20057;-71
2023/11/22 04:46:13;;;;;;;20.92;16.45;;;1.10;99.90;;;;;;4995676;28;20527;-70
2023/11/22 04:48:40;;;;;;;21.23;15.63;;;1.10;99.90;;;;;;5010209;28;20049;-71
2023/11/22 04:51:06;;;;;;;16.73;14.00;;;1.10;99.90;;;;;;5005490;28;20500;-75
2023/11/22 04:53:32;;;;;;;13.35;11.35;;;1.10;99.90;;;;;;4988355;28;20061;-75
2023/11/22 04:55:59;;;;;;;15.73;12.00;;;1.10;99.90;;;;;;4993728;28;20409;-75
2023/11/22 04:58:25;;;;;;;24.42;15.75;;;1.10;99.90;;;;;;5010232;28;20060;-75
2023/11/22 05:00:53;;;;;;;20.70;15.10;;;1.10;99.90;;;;;;4989368;28;20092;-75
2023/11/22 05:03:20;;;;;;;17.83;14.23;;;1.10;99.90;;;;;;5003771;28;20081;-75
2023/11/22 05:05:45;;;;;;;17.58;14.35;;;1.00;99.90;;;;;;4998900;28;20045;-74
2023/11/22 05:08:11;;;;;;;18.20;14.73;;;1.00;99.90;;;;;;5007328;28;20052;-75
2023/11/22 05:10:37;;;;;;;17.23;13.25;;;1.00;99.90;;;;;;5003127;28;20042;-74
2023/11/22 05:13:04;;;;;;;19.80;14.98;;;0.90;99.90;;;;;;4986658;28;20052;-75
2023/11/22 05:15:29;;;;;;;21.45;15.85;;;1.00;99.90;;;;;;4993718;28;20380;-75
2023/11/22 05:17:58;;;;;;;21.23;16.95;;;1.00;99.90;;;;;;4991785;28;20107;-75
2023/11/22 05:20:24;;;;;;;16.98;13.98;;;1.00;99.90;;;;;;5000219;28;20049;-75
2023/11/22 05:22:50;;;;;;;20.33;15.18;;;1.00;99.90;;;;;;5002529;28;20053;-75
2023/11/22 05:25:15;;;;;;;19.83;15.00;;;1.00;99.90;;;;;;4995205;28;20038;-75
2023/11/22 05:27:41;;;;;;;18.25;14.68;;;1.00;99.90;;;;;;5001908;28;20125;-74
2023/11/22 05:30:07;;;;;;;18.23;15.23;;;1.00;99.90;;;;;;5005810;28;20045;-71
2023/11/22 05:32:33;;;;;;;18.42;14.43;;;1.00;99.90;;;;;;5006313;28;20045;-71
2023/11/22 05:34:59;;;;;;;20.15;15.48;;;1.00;99.90;;;;;;5008176;28;20079;-71
2023/11/22 05:37:25;;;;;;;19.40;15.82;;;1.10;99.90;;;;;;5004253;28;20393;-71
2023/11/22 05:39:51;;;;;;;20.40;16.23;;;1.00;99.90;;;;;;4996751;28;20046;-71
2023/11/22 05:42:17;;;;;;;22.58;17.77;;;1.00;99.90;;;;;;5006511;28;20504;-71
2023/11/22 05:44:44;;;;;;;20.70;15.85;;;1.10;99.90;;;;;;4990184;28;20054;-71
2023/11/22 05:47:10;;;;;;;20.42;16.38;;;1.10;99.90;;;;;;4987795;28;20034;-70
2023/11/22 05:49:36;;;;;;;20.92;16.45;;;1.10;99.90;;;;;;4991875;28;20258;-71
2023/11/22 05:52:01;;;;;;;20.40;15.52;;;1.10;99.90;;;;;;4990315;28;20561;-71
2023/11/22 05:54:27;;;;;;;19.20;16.17;;;1.20;99.90;;;;;;4976911;28;20045;-71
2023/11/22 05:56:54;;;;;;;23.63;17.75;;;1.10;99.90;;;;;;5000621;28;20500;-71
2023/11/22 05:59:19;;;;;;;23.08;16.63;;;1.20;99.90;;;;;;5003820;28;20073;-71
2023/11/22 06:01:45;;;;;;;20.98;16.45;;;1.10;99.90;;;;;;5005034;28;20049;-70
2023/11/22 06:04:11;;;;;;;19.63;16.17;;;1.00;99.90;;;;;;4992508;28;20040;-71
2023/11/22 06:06:37;;;;;;;23.70;17.20;;;1.10;99.90;;;;;;5001098;28;20053;-71
2023/11/22 06:09:05;;;;;;;19.10;16.00;;;1.10;99.90;;;;;;4991057;28;20133;-70
2023/11/22 06:11:31;;;;;;;22.67;17.60;;;1.10;99.90;;;;;;4989847;28;20485;-70
2023/11/22 06:13:56;;;;;;;23.50;17.90;;;1.10;99.90;;;;;;4990590;28;20103;-71
2023/11/22 06:16:22;;;;;;;26.88;21.02;;;1.10;99.90;;;;;;5004797;28;20055;-70
2023/11/22 06:18:48;;;;;;;27.38;19.95;;;1.10;99.90;;;;;;4989089;28;20050;-71
2023/11/22 06:21:14;;;;;;;24.63;18.88;;;1.10;99.90;;;;;;4989231;28;20627;-71
2023/11/22 06:23:40;;;;;;;27.80;20.30;;;1.10;99.90;;;;;;4993686;28;20088;-71
2023/11/22 06:26:06;;;;;;;26.58;19.58;;;1.10;99.90;;;;;;5001538;28;20245;-70
2023/11/22 06:28:32;;;;;;;29.15;21.52;;;1.10;99.90;;;;;;4982913;28;20568;-71
2023/11/22 06:30:58;;;;;;;27.52;20.73;;;1.20;99.90;;;;;;5002017;28;20136;-71
2023/11/22 06:33:24;;;;;;;27.38;20.67;;;1.20;99.90;;;;;;5002222;28;20153;-70
2023/11/22 06:35:50;;;;;;;27.60;21.70;;;1.20;99.90;;;;;;4999769;28;20056;-70
2023/11/22 06:38:16;;;;;;;28.27;20.33;;;1.10;99.90;;;;;;4983185;28;20046;-71
2023/11/22 06:40:42;;;;;;;26.10;21.08;;;1.10;99.90;;;;;;4998687;28;20519;-71
2023/11/22 06:43:08;;;;;;;25.45;20.15;;;1.10;99.90;;;;;;5001714;28;20103;-71
2023/11/22 06:45:33;;;;;;;25.90;20.25;;;1.10;99.90;;;;;;5008449;28;20046;-70
2023/11/22 06:48:00;;;;;;;28.30;20.70;;;1.10;99.90;;;;;;5009578;28;20111;-70
2023/11/22 06:50:26;;;;;;;27.73;20.58;;;1.10;99.90;;;;;;5008002;28;20930;-71
2023/11/22 06:52:52;;;;;;;26.80;20.65;;;1.10;99.90;;;;;;4994756;28;20056;-70
2023/11/22 06:55:18;;;;;;;24.65;19.90;;;1.10;99.90;;;;;;5011106;28;20077;-71
2023/11/22 06:57:44;;;;;;;24.97;19.93;;;1.10;99.90;;;;;;5004437;28;20053;-71
2023/11/22 07:00:12;;;;;;;34.42;22.58;;;1.10;99.90;;;;;;5008229;28;20392;-71
2023/11/22 07:02:41;;;;;;;27.05;19.77;;;1.10;99.90;;;;;;5008910;28;20677;-70
2023/11/22 07:05:08;;;;;;;27.52;19.95;;;1.00;99.90;;;;;;4994028;28;20074;-71
2023/11/22 07:07:34;;;;;;;27.00;21.85;;;1.00;99.90;;;;;;5008440;28;20056;-70
2023/11/22 07:10:00;;;;;;;32.13;21.80;;;0.90;99.90;;;;;;4989721;28;20436;-71
2023/11/22 07:12:29;;;;;;;32.47;22.63;;;1.00;99.90;;;;;;4994875;28;20038;-71
2023/11/22 07:14:55;;;;;;;34.15;24.48;;;1.10;99.90;;;;;;5010739;28;20120;-75
2023/11/22 07:17:22;;;;;;;33.42;24.75;;;1.10;99.90;;;;;;4994589;28;20077;-74
2023/11/22 07:19:49;;;;;;;35.22;25.23;;;1.10;99.90;;;;;;4992430;28;20045;-74
2023/11/22 07:22:15;;;;;;;38.08;26.38;;;1.10;99.90;;;;;;5004433;28;20111;-71
2023/11/22 07:24:51;;;;;;;43.20;29.10;;;1.20;99.90;;;;;;4983430;28;20050;-71
2023/11/22 07:27:18;;;;;;;34.00;26.10;;;1.20;99.90;;;;;;5006898;28;20092;-71
2023/11/22 07:29:45;;;;;;;40.55;28.05;;;1.30;99.90;;;;;;5005981;28;20116;-71
2023/11/22 07:32:11;;;;;;;38.67;26.95;;;1.30;99.90;;;;;;4991369;28;20037;-71
2023/11/22 07:34:39;;;;;;;36.55;26.63;;;1.30;99.90;;;;;;5001090;28;20500;-71
2023/11/22 07:37:08;;;;;;;36.67;27.08;;;1.40;99.90;;;;;;5001479;28;20049;-71
2023/11/22 07:39:35;;;;;;;39.80;27.30;;;1.30;99.90;;;;;;5001561;28;20042;-70
2023/11/22 07:42:02;;;;;;;32.67;24.42;;;1.40;99.90;;;;;;5008159;28;20552;-71
2023/11/22 07:44:28;;;;;;;38.28;27.00;;;1.50;99.90;;;;;;5005601;28;20438;-70
2023/11/22 07:46:54;;;;;;;37.03;26.13;;;1.50;99.90;;;;;;5010616;28;20041;-71
2023/11/22 07:49:23;;;;;;;41.88;28.88;;;1.50;99.90;;;;;;4992922;28;20095;-71
2023/11/22 07:51:51;;;;;;;40.90;28.48;;;1.50;99.90;;;;;;5002308;28;20094;-71
2023/11/22 07:54:18;;;;;;;37.75;27.60;;;1.50;99.90;;;;;;5010707;28;20037;-70
2023/11/22 07:56:44;;;;;;;43.35;29.25;;;1.50;99.90;;;;;;5000571;28;20084;-70
2023/11/22 07:59:11;;;;;;;40.38;29.98;;;1.60;99.90;;;;;;4999928;28;20049;-70
2023/11/22 08:01:37;;;;;;;37.88;27.45;;;1.60;99.90;;;;;;4994656;28;20049;-71
2023/11/22 08:04:05;;;;;;;34.35;25.63;;;1.60;99.90;;;;;;4991921;28;20499;-73
2023/11/22 08:06:32;;;;;;;47.35;31.88;;;1.60;99.90;;;;;;5004214;28;20053;-73
2023/11/22 08:09:01;;;;;;;38.10;27.83;;;1.70;99.90;;;;;;5006428;28;20077;-73
2023/11/22 08:11:31;;;;;;;39.00;29.27;;;1.80;99.90;;;;;;5005049;28;20033;-74
2023/11/22 08:13:59;;;;;;;37.33;29.10;;;1.80;99.90;;;;;;5007719;28;20132;-73
2023/11/22 08:16:28;;;;;;;43.05;30.05;;;1.90;99.90;;;;;;5006724;28;20048;-73
2023/11/22 08:18:54;;;;;;;42.88;32.25;;;1.90;99.90;;;;;;4988321;28;20560;-73
2023/11/22 08:21:20;;;;;;;44.45;30.73;;;2.00;99.90;;;;;;5006644;28;20156;-73
2023/11/22 08:23:46;;;;;;;43.00;32.55;;;2.00;99.90;;;;;;5007900;28;20046;-73
2023/11/22 08:26:12;;;;;;;44.85;31.80;;;2.00;99.90;;;;;;5005100;28;20091;-73
2023/11/22 08:28:39;;;;;;;42.03;30.33;;;2.00;99.90;;;;;;5009262;28;20552;-74
2023/11/22 08:31:09;;;;;;;46.40;31.65;;;2.10;99.90;;;;;;5002002;28;20403;-73
2023/11/22 08:33:35;;;;;;;39.88;28.88;;;2.10;99.90;;;;;;4990496;28;20049;-72
2023/11/22 08:36:02;;;;;;;41.80;31.05;;;2.20;99.90;;;;;;5007820;28;20045;-73
2023/11/22 08:38:28;;;;;;;43.05;30.70;;;2.20;99.90;;;;;;4993314;28;20038;-73
2023/11/22 08:40:55;;;;;;;43.33;32.28;;;2.20;99.90;;;;;;4999684;28;20048;-73
2023/11/22 08:43:23;;;;;;;43.40;31.20;;;2.20;99.90;;;;;;4985892;28;20048;-73
2023/11/22 08:45:52;;;;;;;39.45;29.48;;;2.20;99.90;;;;;;4990549;28;20405;-73
2023/11/22 08:48:18;;;;;;;40.78;30.25;;;2.40;99.90;;;;;;5006932;28;20046;-73
2023/11/22 08:50:45;;;;;;;41.88;29.98;;;2.30;99.90;;;;;;5004831;28;20480;-73
2023/11/22 08:53:10;;;;;;;43.75;31.73;;;2.30;99.90;;;;;;4987728;28;20049;-73
2023/11/22 08:55:36;;;;;;;42.20;30.85;;;2.30;99.90;;;;;;5005839;28;20042;-73
2023/11/22 08:58:02;;;;;;;39.65;30.88;;;2.40;99.90;;;;;;4987652;28;20038;-73
2023/11/22 09:00:32;;;;;;;42.55;30.73;;;2.40;99.90;;;;;;5003595;28;20064;-73
2023/11/22 09:02:58;;;;;;;43.55;31.00;;;2.50;99.90;;;;;;4990466;28;20042;-73
2023/11/22 09:05:24;;;;;;;40.20;29.88;;;2.50;99.90;;;;;;4990126;28;20041;-73
2023/11/22 09:07:51;;;;;;;44.55;30.73;;;2.50;99.90;;;;;;5005437;28;20045;-73
2023/11/22 09:10:18;;;;;;;43.88;30.70;;;2.60;99.90;;;;;;5004201;28;20041;-73
2023/11/22 09:12:44;;;;;;;49.65;33.17;;;2.60;99.90;;;;;;4987029;28;20489;-75
2023/11/22 09:15:13;;;;;;;41.90;29.77;;;2.70;99.90;;;;;;5006541;28;20037;-73
2023/11/22 09:17:43;;;;;;;45.63;32.60;;;2.70;99.90;;;;;;4978952;28;20042;-73
2023/11/22 09:20:18;;;;;;;43.50;32.00;;;2.70;99.90;;;;;;5002336;28;20054;-73
2023/11/22 09:22:47;;;;;;;37.88;28.83;;;2.70;99.90;;;;;;4982106;28;20512;-73
2023/11/22 09:25:19;;;;;;;46.83;31.98;;;2.80;99.90;;;;;;4989600;28;20065;-73
2023/11/22 09:27:51;;;;;;;38.65;29.13;;;2.80;99.90;;;;;;4985787;28;20044;-73
2023/11/22 09:30:33;;;;;;;42.95;30.58;;;2.80;99.90;;;;;;4977395;28;20049;-73
2023/11/22 09:33:04;;;;;;;41.70;30.92;;;2.80;99.90;;;;;;4996761;28;20508;-73
2023/11/22 09:35:33;;;;;;;38.53;29.08;;;2.90;99.90;;;;;;4983205;28;20111;-73
2023/11/22 09:38:04;;;;;;;45.25;30.80;;;2.90;99.90;;;;;;4996833;28;20497;-73
2023/11/22 09:40:32;;;;;;;43.30;31.38;;;3.00;99.90;;;;;;4988288;28;20053;-73
2023/11/22 09:43:02;;;;;;;41.22;30.48;;;3.00;99.90;;;;;;4984057;28;20429;-74
2023/11/22 09:45:32;;;;;;;41.45;30.50;;;3.00;99.90;;;;;;5003643;28;20050;-73
2023/11/22 09:47:59;;;;;;;41.97;31.27;;;3.00;99.90;;;;;;5005306;28;20104;-73
2023/11/22 09:50:47;;;;;;;40.70;29.67;;;3.10;99.90;;;;;;5004017;28;20042;-73
2023/11/22 09:53:34;;;;;;;39.47;29.95;;;3.20;99.90;;;;;;5007148;28;20408;-74
2023/11/22 09:56:06;;;;;;;39.30;29.77;;;3.20;99.90;;;;;;4986225;28;20037;-73
2023/11/22 09:58:33;;;;;;;40.97;30.98;;;3.30;99.90;;;;;;5003399;28;20092;-74
2023/11/22 10:01:03;;;;;;;36.80;29.33;;;3.30;99.90;;;;;;4998399;28;20054;-73
2023/11/22 10:03:29;;;;;;;39.83;30.88;;;3.40;99.90;;;;;;4987113;28;20464;-73
2023/11/22 10:05:59;;;;;;;33.10;27.25;;;3.50;99.90;;;;;;5002470;28;20103;-74
2023/11/22 10:08:31;;;;;;;36.95;28.33;;;3.50;99.90;;;;;;5001520;28;20095;-74
2023/11/22 10:10:59;;;;;;;37.60;28.75;;;3.60;99.90;;;;;;4989689;28;20547;-73
2023/11/22 10:13:25;;;;;;;38.72;29.45;;;3.70;99.90;;;;;;4997867;28;20121;-74
2023/11/22 10:15:52;;;;;;;35.42;28.35;;;3.70;99.90;;;;;;5003061;28;20442;-74
2023/11/22 10:18:19;;;;;;;37.17;30.30;;;3.80;99.90;;;;;;5006260;28;20071;-74
2023/11/22 10:20:49;;;;;;;38.20;30.42;;;3.80;99.90;;;;;;5008342;28;20085;-74
2023/11/22 10:23:17;;;;;;;35.60;27.38;;;3.80;99.90;;;;;;5011126;28;20497;-74
2023/11/22 10:25:52;;;;;;;33.33;27.33;;;3.90;99.90;;;;;;4989932;28;20050;-74
2023/11/22 10:28:25;;;;;;;31.88;28.30;;;4.00;99.90;;;;;;4991300;28;20480;-74
2023/11/22 10:30:53;;;;;;;30.58;26.75;;;4.00;99.90;;;;;;4989662;28;20664;-74
2023/11/22 10:33:22;;;;;;;31.35;27.17;;;4.00;99.90;;;;;;5020048;28;20081;-73
2023/11/22 10:35:51;;;;;;;31.17;26.20;;;4.10;99.90;;;;;;5007178;28;20127;-74
2023/11/22 10:38:20;;;;;;;28.33;23.98;;;4.10;99.90;;;;;;5000643;28;20107;-74
2023/11/22 10:40:48;;;;;;;25.58;22.88;;;4.20;99.90;;;;;;4995008;28;20052;-74
2023/11/22 10:43:15;;;;;;;27.98;23.60;;;4.20;99.90;;;;;;4990865;28;20041;-74
2023/11/22 10:45:48;;;;;;;25.20;20.15;;;4.30;99.90;;;;;;5010924;28;20075;-74
2023/11/22 10:48:19;;;;;;;23.98;20.45;;;4.30;99.90;;;;;;4991763;28;20057;-74
2023/11/22 10:50:47;;;;;;;22.20;19.55;;;4.30;99.90;;;;;;4980211;28;20655;-74
2023/11/22 10:53:16;;;;;;;22.13;18.77;;;4.40;99.90;;;;;;5005049;28;20079;-74
2023/11/22 10:55:48;;;;;;;21.48;19.10;;;4.40;99.90;;;;;;4987238;28;20146;-74
2023/11/22 10:58:15;;;;;;;21.33;18.45;;;4.50;99.90;;;;;;5004216;28;20041;-73
2023/11/22 11:00:43;;;;;;;22.80;18.45;;;4.50;99.90;;;;;;4983491;28;20073;-74
2023/11/22 11:03:17;;;;;;;21.40;17.20;;;4.60;99.90;;;;;;4995023;28;20049;-73
2023/11/22 11:05:58;;;;;;;21.02;17.85;;;4.60;99.90;;;;;;4992574;28;20083;-73
2023/11/22 11:08:27;;;;;;;19.73;17.63;;;4.60;99.90;;;;;;4994428;28;20053;-73
2023/11/22 11:10:56;;;;;;;19.40;16.98;;;4.60;99.90;;;;;;5004044;28;20087;-73
2023/11/22 11:13:23;;;;;;;19.80;15.98;;;4.60;99.90;;;;;;5001510;28;20037;-73
2023/11/22 11:15:50;;;;;;;19.65;17.13;;;4.50;99.90;;;;;;5004834;28;20556;-80
2023/11/22 11:18:17;;;;;;;16.92;15.23;;;4.50;99.90;;;;;;4988626;28;20075;-80
2023/11/22 11:20:49;;;;;;;18.13;16.20;;;4.50;99.90;;;;;;5005535;28;20463;-80
2023/11/22 11:23:26;;;;;;;17.77;15.82;;;4.50;99.90;;;;;;4989628;28;20569;-80
2023/11/22 11:25:56;;;;;;;18.48;16.17;;;4.50;99.90;;;;;;4984142;28;20042;-79
2023/11/22 11:28:26;;;;;;;;;;;4.70;99.90;;;;;;5000807;28;20524;-80
2023/11/22 11:30:56;;;;;;;20.85;18.17;;;4.60;99.90;;;;;;5001522;28;20388;-80
2023/11/22 11:33:53;;;;;;;19.33;17.20;;;4.70;99.90;;;;;;4991112;28;20532;-80
2023/11/22 11:36:29;;;;;;;18.77;16.77;;;4.80;99.90;;;;;;4989437;28;20135;-80
2023/11/22 11:39:03;;;;;;;21.25;17.17;;;4.90;99.90;;;;;;4990030;28;20057;-80
2023/11/22 11:41:32;;;;;;;18.83;16.50;;;4.90;99.90;;;;;;5006100;28;20517;-80
2023/11/22 11:43:59;;;;;;;17.35;15.45;;;5.00;99.90;;;;;;5007380;28;20057;-81
2023/11/22 11:46:27;;;;;;;17.42;15.40;;;5.00;99.90;;;;;;5013849;28;20408;-80
2023/11/22 11:48:53;;;;;;;17.70;15.80;;;5.00;99.90;;;;;;4991381;28;20497;-81
2023/11/22 11:51:28;;;;;;;16.48;14.70;;;5.10;99.90;;;;;;4986856;28;20049;-80
2023/11/22 11:53:55;;;;;;;16.90;14.90;;;5.10;99.90;;;;;;5004251;28;20495;-81
2023/11/22 11:56:26;;;;;;;16.10;13.93;;;5.20;99.90;;;;;;5000598;28;20060;-82
2023/11/22 11:58:59;;;;;;;16.48;14.50;;;5.20;99.90;;;;;;4993587;28;20068;-82
2023/11/22 12:01:27;;;;;;;18.85;13.48;;;5.20;99.90;;;;;;5002471;28;20056;-83
2023/11/22 12:03:52;;;;;;;16.40;13.18;;;5.20;99.90;;;;;;5000776;28;20049;-82
2023/11/22 12:06:19;;;;;;;14.05;12.55;;;5.20;99.90;;;;;;5001935;28;20056;-82
2023/11/22 12:08:47;;;;;;;14.75;13.25;;;5.30;99.90;;;;;;4991792;28;20396;-81
2023/11/22 12:11:13;;;;;;;15.68;12.73;;;5.30;99.90;;;;;;4990507;28;20038;-74
2023/11/22 12:13:43;;;;;;;13.75;12.27;;;5.40;99.90;;;;;;4998387;28;20988;-75
2023/11/22 12:16:10;;;;;;;14.55;12.02;;;5.40;99.90;;;;;;5006424;28;20045;-74
2023/11/22 12:18:44;;;;;;;14.35;12.25;;;5.50;99.90;;;;;;4983299;28;20037;-74
2023/11/22 12:21:13;;;;;;;14.02;11.38;;;5.50;99.90;;;;;;5001653;28;20046;-74
2023/11/22 12:23:40;;;;;;;12.27;11.00;;;5.50;99.90;;;;;;4988160;28;20046;-74
2023/11/22 12:26:17;;;;;;;13.15;10.23;;;5.50;99.90;;;;;;5004216;28;20403;-74
2023/11/22 12:28:47;;;;;;;12.23;10.93;;;5.50;99.90;;;;;;4996216;28;20576;-74
2023/11/22 12:31:15;;;;;;;11.10;9.85;;;5.40;99.90;;;;;;5004826;28;20132;-74
2023/11/22 12:33:42;;;;;;;13.05;9.77;;;5.40;99.90;;;;;;5001593;28;20056;-74
2023/11/22 12:36:10;;;;;;;9.82;8.70;;;5.40;99.90;;;;;;4986852;28;20121;-75
2023/11/22 12:38:36;;;;;;;11.25;9.95;;;5.40;99.90;;;;;;4999579;28;20049;-75